sensor_id;sensor_type;location;lat;lon;timestamp;P1;durP1;ratioP1;P2;durP2;ratioP2
71288;SDS011;59068;52.502;9.860;2023-09-30T00:02:26;10.03;;;3.17;;
71288;SDS011;59068;52.502;9.860;2023-09-30T00:04:52;7.97;;;2.60;;
71288;SDS011;59068;52.502;9.860;2023-09-30T00:07:19;9.30;;;3.40;;
71288;SDS011;59068;52.502;9.860;2023-09-30T00:09:46;8.93;;;3.10;;
71288;SDS011;59068;52.502;9.860;2023-09-30T00:12:13;8.03;;;3.10;;
71288;SDS011;59068;52.502;9.860;2023-09-30T00:14:41;9.33;;;2.90;;
71288;SDS011;59068;52.502;9.860;2023-09-30T00:17:08;7.73;;;3.33;;
71288;SDS011;59068;52.502;9.860;2023-09-30T00:19:34;8.33;;;2.87;;
71288;SDS011;59068;52.502;9.860;2023-09-30T00:22:01;5.67;;;2.83;;
71288;SDS011;59068;52.502;9.860;2023-09-30T00:24:28;8.27;;;3.03;;
71288;SDS011;59068;52.502;9.860;2023-09-30T00:26:55;6.47;;;2.63;;
71288;SDS011;59068;52.502;9.860;2023-09-30T00:29:22;8.17;;;3.10;;
71288;SDS011;59068;52.502;9.860;2023-09-30T00:31:50;8.07;;;3.43;;
71288;SDS011;59068;52.502;9.860;2023-09-30T00:34:17;6.67;;;2.57;;
71288;SDS011;59068;52.502;9.860;2023-09-30T00:36:43;8.50;;;3.10;;
71288;SDS011;59068;52.502;9.860;2023-09-30T00:39:10;8.23;;;3.13;;
71288;SDS011;59068;52.502;9.860;2023-09-30T00:41:38;5.20;;;2.77;;
71288;SDS011;59068;52.502;9.860;2023-09-30T00:44:05;7.83;;;3.50;;
71288;SDS011;59068;52.502;9.860;2023-09-30T00:46:33;7.53;;;3.07;;
71288;SDS011;59068;52.502;9.860;2023-09-30T00:49:03;9.13;;;3.13;;
71288;SDS011;59068;52.502;9.860;2023-09-30T00:51:30;6.37;;;3.33;;
71288;SDS011;59068;52.502;9.860;2023-09-30T00:53:58;7.57;;;2.90;;
71288;SDS011;59068;52.502;9.860;2023-09-30T00:56:26;7.53;;;2.90;;
71288;SDS011;59068;52.502;9.860;2023-09-30T00:58:54;6.50;;;2.83;;
71288;SDS011;59068;52.502;9.860;2023-09-30T01:01:22;7.90;;;3.37;;
71288;SDS011;59068;52.502;9.860;2023-09-30T01:03:48;9.03;;;3.37;;
71288;SDS011;59068;52.502;9.860;2023-09-30T01:06:16;6.93;;;3.07;;
71288;SDS011;59068;52.502;9.860;2023-09-30T01:08:43;7.97;;;2.73;;
71288;SDS011;59068;52.502;9.860;2023-09-30T01:11:10;11.17;;;3.17;;
71288;SDS011;59068;52.502;9.860;2023-09-30T01:13:37;7.80;;;2.93;;
71288;SDS011;59068;52.502;9.860;2023-09-30T01:16:04;7.77;;;3.27;;
71288;SDS011;59068;52.502;9.860;2023-09-30T01:18:31;9.40;;;3.50;;
71288;SDS011;59068;52.502;9.860;2023-09-30T01:20:58;8.30;;;3.23;;
71288;SDS011;59068;52.502;9.860;2023-09-30T01:23:28;5.33;;;3.10;;
71288;SDS011;59068;52.502;9.860;2023-09-30T01:25:55;8.20;;;2.83;;
71288;SDS011;59068;52.502;9.860;2023-09-30T01:28:21;7.60;;;2.73;;
71288;SDS011;59068;52.502;9.860;2023-09-30T01:30:48;9.97;;;3.27;;
71288;SDS011;59068;52.502;9.860;2023-09-30T01:33:14;8.50;;;2.97;;
71288;SDS011;59068;52.502;9.860;2023-09-30T01:35:42;8.43;;;3.40;;
71288;SDS011;59068;52.502;9.860;2023-09-30T01:38:10;12.33;;;3.37;;
71288;SDS011;59068;52.502;9.860;2023-09-30T01:40:38;9.47;;;3.43;;
71288;SDS011;59068;52.502;9.860;2023-09-30T01:43:04;8.80;;;2.73;;
71288;SDS011;59068;52.502;9.860;2023-09-30T01:45:31;9.90;;;3.17;;
71288;SDS011;59068;52.502;9.860;2023-09-30T01:47:58;10.30;;;3.60;;
71288;SDS011;59068;52.502;9.860;2023-09-30T01:50:24;7.63;;;2.93;;
71288;SDS011;59068;52.502;9.860;2023-09-30T01:52:51;10.47;;;3.10;;
71288;SDS011;59068;52.502;9.860;2023-09-30T01:55:17;7.57;;;2.70;;
71288;SDS011;59068;52.502;9.860;2023-09-30T01:57:45;9.73;;;2.90;;
71288;SDS011;59068;52.502;9.860;2023-09-30T02:00:12;6.87;;;2.63;;
71288;SDS011;59068;52.502;9.860;2023-09-30T02:02:39;8.90;;;3.20;;
71288;SDS011;59068;52.502;9.860;2023-09-30T02:05:07;9.10;;;3.17;;
71288;SDS011;59068;52.502;9.860;2023-09-30T02:07:34;7.87;;;2.80;;
71288;SDS011;59068;52.502;9.860;2023-09-30T02:10:01;8.97;;;2.43;;
71288;SDS011;59068;52.502;9.860;2023-09-30T02:12:29;10.23;;;3.57;;
71288;SDS011;59068;52.502;9.860;2023-09-30T02:14:57;8.57;;;3.30;;
71288;SDS011;59068;52.502;9.860;2023-09-30T02:17:24;3.80;;;2.30;;
71288;SDS011;59068;52.502;9.860;2023-09-30T02:19:51;6.47;;;2.87;;
71288;SDS011;59068;52.502;9.860;2023-09-30T02:22:18;9.23;;;2.93;;
71288;SDS011;59068;52.502;9.860;2023-09-30T02:24:45;5.93;;;3.13;;
71288;SDS011;59068;52.502;9.860;2023-09-30T02:27:13;11.67;;;3.27;;
71288;SDS011;59068;52.502;9.860;2023-09-30T02:29:40;7.40;;;2.80;;
71288;SDS011;59068;52.502;9.860;2023-09-30T02:32:08;8.50;;;2.87;;
71288;SDS011;59068;52.502;9.860;2023-09-30T02:34:35;6.90;;;2.63;;
71288;SDS011;59068;52.502;9.860;2023-09-30T02:37:03;7.70;;;2.77;;
71288;SDS011;59068;52.502;9.860;2023-09-30T02:39:29;12.17;;;3.20;;
71288;SDS011;59068;52.502;9.860;2023-09-30T02:41:56;9.10;;;3.40;;
71288;SDS011;59068;52.502;9.860;2023-09-30T02:44:22;7.97;;;2.63;;
71288;SDS011;59068;52.502;9.860;2023-09-30T02:46:49;7.57;;;3.00;;
71288;SDS011;59068;52.502;9.860;2023-09-30T02:49:17;10.30;;;3.13;;
71288;SDS011;59068;52.502;9.860;2023-09-30T02:51:44;9.83;;;2.67;;
71288;SDS011;59068;52.502;9.860;2023-09-30T02:54:10;9.50;;;3.33;;
71288;SDS011;59068;52.502;9.860;2023-09-30T02:56:40;8.30;;;2.83;;
71288;SDS011;59068;52.502;9.860;2023-09-30T02:59:07;7.00;;;2.77;;
71288;SDS011;59068;52.502;9.860;2023-09-30T03:01:33;6.10;;;2.90;;
71288;SDS011;59068;52.502;9.860;2023-09-30T03:04:00;10.00;;;2.83;;
71288;SDS011;59068;52.502;9.860;2023-09-30T03:06:28;5.70;;;2.40;;
71288;SDS011;59068;52.502;9.860;2023-09-30T03:08:55;7.53;;;2.53;;
71288;SDS011;59068;52.502;9.860;2023-09-30T03:11:21;8.67;;;2.93;;
71288;SDS011;59068;52.502;9.860;2023-09-30T03:13:48;7.80;;;2.70;;
71288;SDS011;59068;52.502;9.860;2023-09-30T03:16:15;10.30;;;3.13;;
71288;SDS011;59068;52.502;9.860;2023-09-30T03:18:42;10.83;;;3.20;;
71288;SDS011;59068;52.502;9.860;2023-09-30T03:21:12;12.00;;;3.77;;
71288;SDS011;59068;52.502;9.860;2023-09-30T03:23:41;10.63;;;3.37;;
71288;SDS011;59068;52.502;9.860;2023-09-30T03:26:07;8.00;;;3.30;;
71288;SDS011;59068;52.502;9.860;2023-09-30T03:28:35;11.43;;;4.00;;
71288;SDS011;59068;52.502;9.860;2023-09-30T03:31:02;11.67;;;3.90;;
71288;SDS011;59068;52.502;9.860;2023-09-30T03:33:30;8.30;;;3.60;;
71288;SDS011;59068;52.502;9.860;2023-09-30T03:35:58;11.57;;;3.87;;
71288;SDS011;59068;52.502;9.860;2023-09-30T03:38:25;11.27;;;4.10;;
71288;SDS011;59068;52.502;9.860;2023-09-30T03:40:53;7.87;;;3.60;;
71288;SDS011;59068;52.502;9.860;2023-09-30T03:43:23;9.60;;;4.07;;
71288;SDS011;59068;52.502;9.860;2023-09-30T03:45:49;7.93;;;3.17;;
71288;SDS011;59068;52.502;9.860;2023-09-30T03:48:16;6.57;;;3.23;;
71288;SDS011;59068;52.502;9.860;2023-09-30T03:50:43;11.10;;;3.17;;
71288;SDS011;59068;52.502;9.860;2023-09-30T03:53:10;9.37;;;3.27;;
71288;SDS011;59068;52.502;9.860;2023-09-30T03:55:37;9.67;;;3.40;;
71288;SDS011;59068;52.502;9.860;2023-09-30T03:58:05;11.33;;;3.90;;
71288;SDS011;59068;52.502;9.860;2023-09-30T04:00:32;7.43;;;2.93;;
71288;SDS011;59068;52.502;9.860;2023-09-30T04:02:58;8.90;;;3.20;;
71288;SDS011;59068;52.502;9.860;2023-09-30T04:05:25;13.07;;;3.80;;
71288;SDS011;59068;52.502;9.860;2023-09-30T04:07:54;9.53;;;3.30;;
71288;SDS011;59068;52.502;9.860;2023-09-30T04:10:21;7.80;;;3.53;;
71288;SDS011;59068;52.502;9.860;2023-09-30T04:12:48;14.43;;;4.17;;
71288;SDS011;59068;52.502;9.860;2023-09-30T04:15:17;10.70;;;3.53;;
71288;SDS011;59068;52.502;9.860;2023-09-30T04:17:44;6.77;;;3.10;;
71288;SDS011;59068;52.502;9.860;2023-09-30T04:20:11;9.63;;;4.13;;
71288;SDS011;59068;52.502;9.860;2023-09-30T04:22:41;8.33;;;3.03;;
71288;SDS011;59068;52.502;9.860;2023-09-30T04:25:11;13.03;;;3.50;;
71288;SDS011;59068;52.502;9.860;2023-09-30T04:27:41;7.23;;;3.23;;
71288;SDS011;59068;52.502;9.860;2023-09-30T04:30:08;10.60;;;3.63;;
71288;SDS011;59068;52.502;9.860;2023-09-30T04:32:37;9.00;;;3.17;;
71288;SDS011;59068;52.502;9.860;2023-09-30T04:35:04;5.60;;;3.10;;
71288;SDS011;59068;52.502;9.860;2023-09-30T04:37:33;9.10;;;3.10;;
71288;SDS011;59068;52.502;9.860;2023-09-30T04:40:02;9.40;;;3.20;;
71288;SDS011;59068;52.502;9.860;2023-09-30T04:42:32;11.63;;;3.53;;
71288;SDS011;59068;52.502;9.860;2023-09-30T04:44:59;7.90;;;3.30;;
71288;SDS011;59068;52.502;9.860;2023-09-30T04:47:26;8.63;;;3.30;;
71288;SDS011;59068;52.502;9.860;2023-09-30T04:49:54;10.67;;;3.50;;
71288;SDS011;59068;52.502;9.860;2023-09-30T04:52:23;7.03;;;3.30;;
71288;SDS011;59068;52.502;9.860;2023-09-30T04:54:52;8.20;;;2.67;;
71288;SDS011;59068;52.502;9.860;2023-09-30T04:57:18;8.33;;;3.03;;
71288;SDS011;59068;52.502;9.860;2023-09-30T04:59:45;7.83;;;3.07;;
71288;SDS011;59068;52.502;9.860;2023-09-30T05:02:12;4.97;;;3.07;;
71288;SDS011;59068;52.502;9.860;2023-09-30T05:04:40;9.47;;;3.77;;
71288;SDS011;59068;52.502;9.860;2023-09-30T05:07:08;8.53;;;2.80;;
71288;SDS011;59068;52.502;9.860;2023-09-30T05:09:37;9.73;;;3.40;;
71288;SDS011;59068;52.502;9.860;2023-09-30T05:12:04;7.07;;;2.80;;
71288;SDS011;59068;52.502;9.860;2023-09-30T05:14:31;8.67;;;3.17;;
71288;SDS011;59068;52.502;9.860;2023-09-30T05:16:58;8.10;;;2.90;;
71288;SDS011;59068;52.502;9.860;2023-09-30T05:19:24;6.83;;;2.77;;
71288;SDS011;59068;52.502;9.860;2023-09-30T05:21:51;11.53;;;2.77;;
71288;SDS011;59068;52.502;9.860;2023-09-30T05:24:19;9.63;;;3.03;;
71288;SDS011;59068;52.502;9.860;2023-09-30T05:26:46;6.03;;;2.60;;
71288;SDS011;59068;52.502;9.860;2023-09-30T05:29:13;9.03;;;3.17;;
71288;SDS011;59068;52.502;9.860;2023-09-30T05:31:40;12.00;;;3.97;;
71288;SDS011;59068;52.502;9.860;2023-09-30T05:34:07;8.47;;;3.00;;
71288;SDS011;59068;52.502;9.860;2023-09-30T05:36:34;9.17;;;2.57;;
71288;SDS011;59068;52.502;9.860;2023-09-30T05:39:01;7.83;;;2.77;;
71288;SDS011;59068;52.502;9.860;2023-09-30T05:41:29;6.97;;;2.80;;
71288;SDS011;59068;52.502;9.860;2023-09-30T05:43:56;8.93;;;3.10;;
71288;SDS011;59068;52.502;9.860;2023-09-30T05:46:23;8.43;;;3.20;;
71288;SDS011;59068;52.502;9.860;2023-09-30T05:48:50;9.37;;;2.97;;
71288;SDS011;59068;52.502;9.860;2023-09-30T05:51:17;8.20;;;4.10;;
71288;SDS011;59068;52.502;9.860;2023-09-30T05:53:44;7.37;;;3.63;;
71288;SDS011;59068;52.502;9.860;2023-09-30T05:56:12;7.07;;;2.73;;
71288;SDS011;59068;52.502;9.860;2023-09-30T05:58:41;6.57;;;2.60;;
71288;SDS011;59068;52.502;9.860;2023-09-30T06:01:08;8.40;;;2.93;;
71288;SDS011;59068;52.502;9.860;2023-09-30T06:03:37;6.33;;;2.27;;
71288;SDS011;59068;52.502;9.860;2023-09-30T06:06:09;6.83;;;2.87;;
71288;SDS011;59068;52.502;9.860;2023-09-30T06:08:38;7.20;;;2.80;;
71288;SDS011;59068;52.502;9.860;2023-09-30T06:11:04;9.37;;;3.40;;
71288;SDS011;59068;52.502;9.860;2023-09-30T06:13:31;5.93;;;2.87;;
71288;SDS011;59068;52.502;9.860;2023-09-30T06:16:00;7.17;;;3.00;;
71288;SDS011;59068;52.502;9.860;2023-09-30T06:18:27;9.53;;;2.73;;
71288;SDS011;59068;52.502;9.860;2023-09-30T06:20:54;7.30;;;2.83;;
71288;SDS011;59068;52.502;9.860;2023-09-30T06:23:20;5.00;;;2.30;;
71288;SDS011;59068;52.502;9.860;2023-09-30T06:25:47;9.77;;;3.27;;
71288;SDS011;59068;52.502;9.860;2023-09-30T06:28:13;7.57;;;2.83;;
71288;SDS011;59068;52.502;9.860;2023-09-30T06:30:40;9.40;;;2.43;;
71288;SDS011;59068;52.502;9.860;2023-09-30T06:33:09;6.37;;;2.97;;
71288;SDS011;59068;52.502;9.860;2023-09-30T06:35:38;8.13;;;3.13;;
71288;SDS011;59068;52.502;9.860;2023-09-30T06:38:15;8.80;;;3.23;;
71288;SDS011;59068;52.502;9.860;2023-09-30T06:40:43;8.03;;;2.90;;
71288;SDS011;59068;52.502;9.860;2023-09-30T06:43:12;9.07;;;2.80;;
71288;SDS011;59068;52.502;9.860;2023-09-30T06:45:40;8.53;;;2.67;;
71288;SDS011;59068;52.502;9.860;2023-09-30T06:48:08;7.10;;;3.60;;
71288;SDS011;59068;52.502;9.860;2023-09-30T06:50:37;8.77;;;3.87;;
71288;SDS011;59068;52.502;9.860;2023-09-30T06:53:05;11.17;;;3.30;;
71288;SDS011;59068;52.502;9.860;2023-09-30T06:55:32;7.53;;;3.03;;
71288;SDS011;59068;52.502;9.860;2023-09-30T06:57:59;8.33;;;2.47;;
71288;SDS011;59068;52.502;9.860;2023-09-30T07:00:26;9.00;;;2.80;;
71288;SDS011;59068;52.502;9.860;2023-09-30T07:02:53;7.43;;;2.60;;
71288;SDS011;59068;52.502;9.860;2023-09-30T07:05:22;6.53;;;2.50;;
71288;SDS011;59068;52.502;9.860;2023-09-30T07:07:48;6.50;;;2.37;;
71288;SDS011;59068;52.502;9.860;2023-09-30T07:10:16;5.73;;;2.67;;
71288;SDS011;59068;52.502;9.860;2023-09-30T07:12:43;9.37;;;2.50;;
71288;SDS011;59068;52.502;9.860;2023-09-30T07:15:10;7.47;;;3.00;;
71288;SDS011;59068;52.502;9.860;2023-09-30T07:17:38;6.97;;;2.53;;
71288;SDS011;59068;52.502;9.860;2023-09-30T07:20:06;6.43;;;2.43;;
71288;SDS011;59068;52.502;9.860;2023-09-30T07:22:36;6.43;;;2.47;;
71288;SDS011;59068;52.502;9.860;2023-09-30T07:25:03;5.90;;;2.40;;
71288;SDS011;59068;52.502;9.860;2023-09-30T07:27:30;8.17;;;2.37;;
71288;SDS011;59068;52.502;9.860;2023-09-30T07:29:57;7.70;;;2.60;;
71288;SDS011;59068;52.502;9.860;2023-09-30T07:32:23;7.93;;;2.27;;
71288;SDS011;59068;52.502;9.860;2023-09-30T07:34:51;8.87;;;2.43;;
71288;SDS011;59068;52.502;9.860;2023-09-30T07:37:18;7.03;;;2.80;;
71288;SDS011;59068;52.502;9.860;2023-09-30T07:39:47;6.53;;;2.40;;
71288;SDS011;59068;52.502;9.860;2023-09-30T07:42:13;5.87;;;2.60;;
71288;SDS011;59068;52.502;9.860;2023-09-30T07:44:42;7.47;;;2.43;;
71288;SDS011;59068;52.502;9.860;2023-09-30T07:47:09;3.97;;;2.23;;
71288;SDS011;59068;52.502;9.860;2023-09-30T07:49:35;7.30;;;2.90;;
71288;SDS011;59068;52.502;9.860;2023-09-30T07:52:04;6.07;;;2.07;;
71288;SDS011;59068;52.502;9.860;2023-09-30T07:54:31;8.90;;;2.33;;
71288;SDS011;59068;52.502;9.860;2023-09-30T07:56:59;9.13;;;2.67;;
71288;SDS011;59068;52.502;9.860;2023-09-30T07:59:26;10.87;;;2.80;;
71288;SDS011;59068;52.502;9.860;2023-09-30T08:01:53;9.57;;;2.40;;
71288;SDS011;59068;52.502;9.860;2023-09-30T08:04:23;7.30;;;2.33;;
71288;SDS011;59068;52.502;9.860;2023-09-30T08:06:50;7.67;;;2.40;;
71288;SDS011;59068;52.502;9.860;2023-09-30T08:09:17;8.50;;;2.53;;
71288;SDS011;59068;52.502;9.860;2023-09-30T08:11:44;5.80;;;2.20;;
71288;SDS011;59068;52.502;9.860;2023-09-30T08:14:12;4.63;;;1.83;;
71288;SDS011;59068;52.502;9.860;2023-09-30T08:16:40;5.57;;;2.20;;
71288;SDS011;59068;52.502;9.860;2023-09-30T08:19:08;9.27;;;2.63;;
71288;SDS011;59068;52.502;9.860;2023-09-30T08:21:34;8.10;;;2.80;;
71288;SDS011;59068;52.502;9.860;2023-09-30T08:24:01;6.80;;;2.23;;
71288;SDS011;59068;52.502;9.860;2023-09-30T08:26:28;6.37;;;2.40;;
71288;SDS011;59068;52.502;9.860;2023-09-30T08:28:55;8.07;;;2.47;;
71288;SDS011;59068;52.502;9.860;2023-09-30T08:31:24;7.43;;;2.07;;
71288;SDS011;59068;52.502;9.860;2023-09-30T08:33:50;9.30;;;2.33;;
71288;SDS011;59068;52.502;9.860;2023-09-30T08:36:17;8.17;;;2.60;;
71288;SDS011;59068;52.502;9.860;2023-09-30T08:38:44;6.90;;;2.60;;
71288;SDS011;59068;52.502;9.860;2023-09-30T08:41:11;6.30;;;2.20;;
71288;SDS011;59068;52.502;9.860;2023-09-30T08:43:50;9.30;;;2.63;;
71288;SDS011;59068;52.502;9.860;2023-09-30T08:46:20;5.13;;;1.90;;
71288;SDS011;59068;52.502;9.860;2023-09-30T08:48:49;3.77;;;1.70;;
71288;SDS011;59068;52.502;9.860;2023-09-30T08:51:16;5.13;;;1.80;;
71288;SDS011;59068;52.502;9.860;2023-09-30T08:53:42;9.63;;;3.23;;
71288;SDS011;59068;52.502;9.860;2023-09-30T08:56:10;4.70;;;2.00;;
71288;SDS011;59068;52.502;9.860;2023-09-30T08:58:37;4.37;;;2.10;;
71288;SDS011;59068;52.502;9.860;2023-09-30T09:01:04;3.97;;;1.67;;
71288;SDS011;59068;52.502;9.860;2023-09-30T09:03:34;5.23;;;1.90;;
71288;SDS011;59068;52.502;9.860;2023-09-30T09:06:03;5.43;;;1.60;;
71288;SDS011;59068;52.502;9.860;2023-09-30T09:08:30;4.13;;;1.97;;
71288;SDS011;59068;52.502;9.860;2023-09-30T09:10:58;3.97;;;1.67;;
71288;SDS011;59068;52.502;9.860;2023-09-30T09:13:26;6.80;;;1.90;;
71288;SDS011;59068;52.502;9.860;2023-09-30T09:16:06;5.40;;;1.90;;
71288;SDS011;59068;52.502;9.860;2023-09-30T09:18:33;7.17;;;2.70;;
71288;SDS011;59068;52.502;9.860;2023-09-30T09:21:12;5.90;;;2.17;;
71288;SDS011;59068;52.502;9.860;2023-09-30T09:23:39;4.03;;;1.60;;
71288;SDS011;59068;52.502;9.860;2023-09-30T09:26:06;7.43;;;2.07;;
71288;SDS011;59068;52.502;9.860;2023-09-30T09:28:36;3.87;;;1.67;;
71288;SDS011;59068;52.502;9.860;2023-09-30T09:31:20;6.57;;;2.03;;
71288;SDS011;59068;52.502;9.860;2023-09-30T09:33:48;7.60;;;2.17;;
71288;SDS011;59068;52.502;9.860;2023-09-30T09:36:17;6.23;;;1.67;;
71288;SDS011;59068;52.502;9.860;2023-09-30T09:38:45;5.90;;;1.60;;
71288;SDS011;59068;52.502;9.860;2023-09-30T09:41:15;3.47;;;1.57;;
71288;SDS011;59068;52.502;9.860;2023-09-30T09:43:42;5.07;;;2.27;;
71288;SDS011;59068;52.502;9.860;2023-09-30T09:46:09;5.93;;;1.40;;
71288;SDS011;59068;52.502;9.860;2023-09-30T09:48:39;2.83;;;1.43;;
71288;SDS011;59068;52.502;9.860;2023-09-30T09:51:06;5.37;;;1.43;;
71288;SDS011;59068;52.502;9.860;2023-09-30T09:53:36;5.77;;;1.73;;
71288;SDS011;59068;52.502;9.860;2023-09-30T09:56:03;5.70;;;1.80;;
71288;SDS011;59068;52.502;9.860;2023-09-30T09:58:32;3.47;;;1.67;;
71288;SDS011;59068;52.502;9.860;2023-09-30T10:01:00;4.40;;;1.60;;
71288;SDS011;59068;52.502;9.860;2023-09-30T10:03:27;3.53;;;1.60;;
71288;SDS011;59068;52.502;9.860;2023-09-30T10:05:54;3.60;;;1.50;;
71288;SDS011;59068;52.502;9.860;2023-09-30T10:08:21;4.93;;;1.60;;
71288;SDS011;59068;52.502;9.860;2023-09-30T10:10:57;6.20;;;3.37;;
71288;SDS011;59068;52.502;9.860;2023-09-30T10:19:14;5.83;;;3.83;;
71288;SDS011;59068;52.502;9.860;2023-09-30T10:24:43;6.07;;;2.50;;
71288;SDS011;59068;52.502;9.860;2023-09-30T10:29:57;4.63;;;1.47;;
71288;SDS011;59068;52.502;9.860;2023-09-30T10:32:39;5.20;;;1.50;;
71288;SDS011;59068;52.502;9.860;2023-09-30T10:35:47;4.17;;;1.60;;
71288;SDS011;59068;52.502;9.860;2023-09-30T10:41:03;5.03;;;1.60;;
71288;SDS011;59068;52.502;9.860;2023-09-30T10:43:33;5.20;;;1.80;;
71288;SDS011;59068;52.502;9.860;2023-09-30T10:46:00;4.77;;;1.50;;
71288;SDS011;59068;52.502;9.860;2023-09-30T10:48:35;3.87;;;1.37;;
71288;SDS011;59068;52.502;9.860;2023-09-30T10:51:13;3.23;;;1.50;;
71288;SDS011;59068;52.502;9.860;2023-09-30T10:53:44;5.50;;;1.20;;
71288;SDS011;59068;52.502;9.860;2023-09-30T10:56:12;5.80;;;1.50;;
71288;SDS011;59068;52.502;9.860;2023-09-30T10:58:40;2.80;;;1.20;;
71288;SDS011;59068;52.502;9.860;2023-09-30T11:01:07;5.43;;;1.50;;
71288;SDS011;59068;52.502;9.860;2023-09-30T11:03:36;5.83;;;1.33;;
71288;SDS011;59068;52.502;9.860;2023-09-30T11:06:03;5.40;;;1.43;;
71288;SDS011;59068;52.502;9.860;2023-09-30T11:08:30;5.73;;;1.30;;
71288;SDS011;59068;52.502;9.860;2023-09-30T11:10:57;5.00;;;1.57;;
71288;SDS011;59068;52.502;9.860;2023-09-30T11:13:32;5.60;;;1.73;;
71288;SDS011;59068;52.502;9.860;2023-09-30T11:16:00;7.00;;;1.57;;
71288;SDS011;59068;52.502;9.860;2023-09-30T11:18:27;3.70;;;1.40;;
71288;SDS011;59068;52.502;9.860;2023-09-30T11:21:04;3.90;;;1.43;;
71288;SDS011;59068;52.502;9.860;2023-09-30T11:23:32;4.60;;;1.47;;
71288;SDS011;59068;52.502;9.860;2023-09-30T11:25:59;2.50;;;1.17;;
71288;SDS011;59068;52.502;9.860;2023-09-30T11:28:34;5.90;;;1.40;;
71288;SDS011;59068;52.502;9.860;2023-09-30T11:31:02;4.20;;;1.40;;
71288;SDS011;59068;52.502;9.860;2023-09-30T11:33:31;2.53;;;1.17;;
71288;SDS011;59068;52.502;9.860;2023-09-30T11:36:23;1.90;;;0.97;;
71288;SDS011;59068;52.502;9.860;2023-09-30T11:39:20;1.53;;;1.00;;
71288;SDS011;59068;52.502;9.860;2023-09-30T11:42:14;3.30;;;1.27;;
71288;SDS011;59068;52.502;9.860;2023-09-30T11:45:17;5.10;;;1.37;;
71288;SDS011;59068;52.502;9.860;2023-09-30T11:48:15;4.47;;;1.17;;
71288;SDS011;59068;52.502;9.860;2023-09-30T11:51:03;3.53;;;1.30;;
71288;SDS011;59068;52.502;9.860;2023-09-30T11:53:52;3.13;;;1.40;;
71288;SDS011;59068;52.502;9.860;2023-09-30T11:56:41;3.73;;;1.30;;
71288;SDS011;59068;52.502;9.860;2023-09-30T11:59:29;2.07;;;1.00;;
71288;SDS011;59068;52.502;9.860;2023-09-30T12:02:17;4.13;;;1.80;;
71288;SDS011;59068;52.502;9.860;2023-09-30T12:05:06;2.80;;;1.10;;
71288;SDS011;59068;52.502;9.860;2023-09-30T12:07:55;1.83;;;1.20;;
71288;SDS011;59068;52.502;9.860;2023-09-30T12:10:44;5.13;;;1.63;;
71288;SDS011;59068;52.502;9.860;2023-09-30T12:13:31;3.03;;;1.37;;
71288;SDS011;59068;52.502;9.860;2023-09-30T12:16:19;4.40;;;1.73;;
71288;SDS011;59068;52.502;9.860;2023-09-30T12:19:06;4.47;;;1.50;;
71288;SDS011;59068;52.502;9.860;2023-09-30T12:21:54;2.40;;;1.10;;
71288;SDS011;59068;52.502;9.860;2023-09-30T12:24:44;2.70;;;1.07;;
71288;SDS011;59068;52.502;9.860;2023-09-30T12:27:33;3.03;;;0.83;;
71288;SDS011;59068;52.502;9.860;2023-09-30T12:30:21;3.87;;;1.13;;
71288;SDS011;59068;52.502;9.860;2023-09-30T12:33:09;3.57;;;1.27;;
71288;SDS011;59068;52.502;9.860;2023-09-30T12:35:57;2.53;;;1.27;;
71288;SDS011;59068;52.502;9.860;2023-09-30T12:38:45;2.37;;;0.90;;
71288;SDS011;59068;52.502;9.860;2023-09-30T12:41:37;2.43;;;1.17;;
71288;SDS011;59068;52.502;9.860;2023-09-30T12:44:24;3.90;;;1.30;;
71288;SDS011;59068;52.502;9.860;2023-09-30T12:47:13;2.37;;;1.40;;
71288;SDS011;59068;52.502;9.860;2023-09-30T12:50:00;3.83;;;0.93;;
71288;SDS011;59068;52.502;9.860;2023-09-30T12:52:47;3.50;;;1.10;;
71288;SDS011;59068;52.502;9.860;2023-09-30T12:55:35;2.40;;;0.97;;
71288;SDS011;59068;52.502;9.860;2023-09-30T12:58:23;2.27;;;1.23;;
71288;SDS011;59068;52.502;9.860;2023-09-30T13:01:11;2.63;;;1.33;;
71288;SDS011;59068;52.502;9.860;2023-09-30T13:03:59;2.73;;;1.10;;
71288;SDS011;59068;52.502;9.860;2023-09-30T13:06:49;3.50;;;1.53;;
71288;SDS011;59068;52.502;9.860;2023-09-30T13:09:36;3.43;;;1.20;;
71288;SDS011;59068;52.502;9.860;2023-09-30T13:12:25;3.60;;;1.07;;
71288;SDS011;59068;52.502;9.860;2023-09-30T13:15:16;2.83;;;1.30;;
71288;SDS011;59068;52.502;9.860;2023-09-30T13:18:04;3.73;;;1.27;;
71288;SDS011;59068;52.502;9.860;2023-09-30T13:20:51;3.67;;;1.20;;
71288;SDS011;59068;52.502;9.860;2023-09-30T13:23:38;3.23;;;1.00;;
71288;SDS011;59068;52.502;9.860;2023-09-30T13:26:25;4.47;;;1.20;;
71288;SDS011;59068;52.502;9.860;2023-09-30T13:29:13;3.27;;;1.30;;
71288;SDS011;59068;52.502;9.860;2023-09-30T13:32:02;3.23;;;1.30;;
71288;SDS011;59068;52.502;9.860;2023-09-30T13:34:50;3.67;;;1.47;;
71288;SDS011;59068;52.502;9.860;2023-09-30T13:37:37;3.13;;;1.47;;
71288;SDS011;59068;52.502;9.860;2023-09-30T13:40:25;5.03;;;1.47;;
71288;SDS011;59068;52.502;9.860;2023-09-30T13:43:15;6.00;;;1.40;;
71288;SDS011;59068;52.502;9.860;2023-09-30T13:46:04;3.30;;;1.30;;
71288;SDS011;59068;52.502;9.860;2023-09-30T13:48:54;4.20;;;1.20;;
71288;SDS011;59068;52.502;9.860;2023-09-30T13:51:42;2.90;;;1.50;;
71288;SDS011;59068;52.502;9.860;2023-09-30T13:54:30;3.90;;;1.30;;
71288;SDS011;59068;52.502;9.860;2023-09-30T13:57:17;4.33;;;1.33;;
71288;SDS011;59068;52.502;9.860;2023-09-30T14:00:06;3.97;;;1.70;;
71288;SDS011;59068;52.502;9.860;2023-09-30T14:02:54;3.97;;;1.43;;
71288;SDS011;59068;52.502;9.860;2023-09-30T14:05:42;5.60;;;1.63;;
71288;SDS011;59068;52.502;9.860;2023-09-30T14:08:36;3.50;;;1.57;;
71288;SDS011;59068;52.502;9.860;2023-09-30T14:11:23;5.37;;;1.20;;
71288;SDS011;59068;52.502;9.860;2023-09-30T14:14:11;5.47;;;1.50;;
71288;SDS011;59068;52.502;9.860;2023-09-30T14:16:59;4.37;;;1.43;;
71288;SDS011;59068;52.502;9.860;2023-09-30T14:19:46;4.47;;;1.70;;
71288;SDS011;59068;52.502;9.860;2023-09-30T14:22:35;3.53;;;1.80;;
71288;SDS011;59068;52.502;9.860;2023-09-30T14:25:23;2.50;;;1.50;;
71288;SDS011;59068;52.502;9.860;2023-09-30T14:28:11;3.63;;;1.30;;
71288;SDS011;59068;52.502;9.860;2023-09-30T14:30:58;2.23;;;1.20;;
71288;SDS011;59068;52.502;9.860;2023-09-30T14:33:49;5.10;;;1.93;;
71288;SDS011;59068;52.502;9.860;2023-09-30T14:36:36;2.93;;;1.50;;
71288;SDS011;59068;52.502;9.860;2023-09-30T14:39:24;2.93;;;1.40;;
71288;SDS011;59068;52.502;9.860;2023-09-30T14:42:12;4.37;;;1.50;;
71288;SDS011;59068;52.502;9.860;2023-09-30T14:44:59;3.23;;;1.30;;
71288;SDS011;59068;52.502;9.860;2023-09-30T14:47:47;2.23;;;1.30;;
71288;SDS011;59068;52.502;9.860;2023-09-30T14:50:34;4.53;;;1.57;;
71288;SDS011;59068;52.502;9.860;2023-09-30T14:53:22;3.63;;;1.33;;
71288;SDS011;59068;52.502;9.860;2023-09-30T14:56:15;5.57;;;1.80;;
71288;SDS011;59068;52.502;9.860;2023-09-30T14:59:03;3.47;;;1.50;;
71288;SDS011;59068;52.502;9.860;2023-09-30T15:01:50;3.27;;;1.40;;
71288;SDS011;59068;52.502;9.860;2023-09-30T15:04:37;3.67;;;1.30;;
71288;SDS011;59068;52.502;9.860;2023-09-30T15:07:25;3.83;;;1.20;;
71288;SDS011;59068;52.502;9.860;2023-09-30T15:10:12;3.63;;;1.30;;
71288;SDS011;59068;52.502;9.860;2023-09-30T15:13:02;3.07;;;1.40;;
71288;SDS011;59068;52.502;9.860;2023-09-30T15:15:49;2.13;;;1.20;;
71288;SDS011;59068;52.502;9.860;2023-09-30T15:18:43;3.13;;;1.53;;
71288;SDS011;59068;52.502;9.860;2023-09-30T15:21:30;3.80;;;1.40;;
71288;SDS011;59068;52.502;9.860;2023-09-30T15:24:17;2.50;;;1.57;;
71288;SDS011;59068;52.502;9.860;2023-09-30T15:27:05;3.80;;;1.70;;
71288;SDS011;59068;52.502;9.860;2023-09-30T15:29:53;5.07;;;1.70;;
71288;SDS011;59068;52.502;9.860;2023-09-30T15:32:41;3.53;;;1.37;;
71288;SDS011;59068;52.502;9.860;2023-09-30T15:35:28;2.67;;;1.40;;